Time;durP1;ratioP1;P1;durP2;ratioP2;P2;SDS_P1;SDS_P2;PMS_P1;PMS_P2;Temp;Humidity;BMP_temperature;BMP_pressure;BME280_temperature;BME280_humidity;BME280_pressure;Samples;Min_cycle;Max_cycle;Signal;HPM_P1;HPM_P2
2022/08/27 00:01:20;;;;;;;3.15;2.38;;;25.60;59.60;;;;;;4972115;28;20050;-64
2022/08/27 00:03:48;;;;;;;4.78;2.85;;;25.60;59.60;;;;;;4989325;28;20058;-60
2022/08/27 00:06:18;;;;;;;2.67;1.92;;;25.60;59.60;;;;;;4987757;28;20065;-60
2022/08/27 00:08:47;;;;;;;2.47;2.28;;;25.60;59.60;;;;;;4972554;28;20427;-60
2022/08/27 00:11:16;;;;;;;2.13;1.92;;;25.60;59.60;;;;;;4988412;28;20082;-60
2022/08/27 00:13:44;;;;;;;5.22;2.00;;;25.60;59.70;;;;;;4989063;28;20050;-60
2022/08/27 00:16:14;;;;;;;4.05;2.20;;;25.60;59.60;;;;;;4989165;28;20209;-60
2022/08/27 00:18:42;;;;;;;2.00;1.90;;;25.60;60.20;;;;;;4988638;28;20054;-61
2022/08/27 00:21:15;;;;;;;2.75;2.25;;;25.60;59.60;;;;;;4984442;28;20522;-60
2022/08/27 00:23:42;;;;;;;3.25;2.20;;;25.60;59.70;;;;;;4970773;28;20042;-60
2022/08/27 00:26:10;;;;;;;2.72;2.00;;;25.60;59.60;;;;;;4988472;28;20078;-60
2022/08/27 00:28:37;;;;;;;2.25;2.03;;;25.60;59.60;;;;;;4989138;28;20089;-61
2022/08/27 00:31:04;;;;;;;2.60;2.40;;;25.60;59.60;;;;;;4987598;28;20402;-60
2022/08/27 00:33:32;;;;;;;2.72;1.98;;;25.60;59.70;;;;;;4989105;28;20086;-61
2022/08/27 00:35:59;;;;;;;2.88;2.03;;;25.60;59.70;;;;;;4970585;28;20034;-60
2022/08/27 00:38:26;;;;;;;1.85;1.75;;;25.60;59.70;;;;;;4988816;28;20050;-61
2022/08/27 00:40:54;;;;;;;2.47;2.22;;;25.60;59.70;;;;;;4988511;28;20054;-60
2022/08/27 00:43:24;;;;;;;2.60;2.20;;;25.60;59.70;;;;;;4988857;28;20482;-60
2022/08/27 00:45:54;;;;;;;1.80;1.70;;;25.60;59.70;;;;;;4988800;28;20054;-60
2022/08/27 00:48:24;;;;;;;2.03;1.92;;;25.60;59.70;;;;;;4987610;28;20589;-60
2022/08/27 00:50:54;;;;;;;2.05;1.85;;;25.50;59.70;;;;;;4969572;28;20673;-60
2022/08/27 00:53:25;;;;;;;2.08;1.73;;;25.50;59.70;;;;;;4968599;28;20423;-60
2022/08/27 00:55:57;;;;;;;2.75;2.30;;;25.50;59.70;;;;;;4987577;28;20046;-60
2022/08/27 00:58:32;;;;;;;2.72;1.98;;;25.50;59.70;;;;;;4989089;28;20058;-60
2022/08/27 01:01:01;;;;;;;2.42;2.22;;;25.50;59.70;;;;;;4987222;28;20078;-60
2022/08/27 01:03:28;;;;;;;1.88;1.75;;;25.50;59.70;;;;;;4988365;28;20060;-60
2022/08/27 01:05:58;;;;;;;3.08;2.20;;;25.50;59.70;;;;;;4988467;28;20054;-61
2022/08/27 01:08:29;;;;;;;2.47;2.05;;;25.50;59.70;;;;;;4988467;28;20046;-61
2022/08/27 01:10:58;;;;;;;1.83;1.73;;;25.50;59.70;;;;;;4970845;28;20101;-60
2022/08/27 01:13:30;;;;;;;2.95;1.70;;;25.50;59.70;;;;;;4990052;28;20534;-60
2022/08/27 01:16:22;;;;;;;3.75;2.53;;;25.50;59.80;;;;;;4992442;28;20471;-60
2022/08/27 01:18:50;;;;;;;2.03;1.83;;;25.50;59.70;;;;;;4991050;28;20382;-60
2022/08/27 01:21:41;;;;;;;2.50;2.10;;;25.40;59.70;;;;;;4992022;28;20128;-60
2022/08/27 01:24:28;;;;;;;2.20;2.10;;;25.40;59.70;;;;;;4973879;28;20050;-60
2022/08/27 01:26:58;;;;;;;2.17;1.92;;;25.50;59.80;;;;;;4991762;28;20124;-60
2022/08/27 01:29:25;;;;;;;;;;;25.40;59.70;;;;;;4992400;28;20046;-60
2022/08/27 01:31:56;;;;;;;3.70;2.55;;;25.40;59.70;;;;;;4973307;28;19929;-60
2022/08/27 01:34:24;;;;;;;2.42;2.22;;;25.40;59.70;;;;;;4991973;28;20093;-60
2022/08/27 01:36:51;;;;;;;1.88;1.75;;;25.50;59.80;;;;;;4991119;28;20074;-60
2022/08/27 01:39:23;;;;;;;2.28;2.08;;;25.40;59.70;;;;;;4975459;28;20089;-60
2022/08/27 01:41:51;;;;;;;2.92;2.30;;;25.50;59.80;;;;;;4991950;28;20268;-60
2022/08/27 01:44:19;;;;;;;2.80;2.50;;;25.50;59.80;;;;;;4990571;28;20116;-60
2022/08/27 01:46:46;;;;;;;2.92;2.15;;;25.40;59.70;;;;;;4974303;28;20162;-60
2022/08/27 01:49:14;;;;;;;3.97;1.85;;;25.40;59.70;;;;;;4991252;28;20058;-60
2022/08/27 01:51:41;;;;;;;3.72;2.10;;;25.50;59.80;;;;;;4991251;28;20043;-60
2022/08/27 01:54:09;;;;;;;3.10;2.33;;;25.50;59.80;;;;;;4972798;28;20057;-60
2022/08/27 01:56:36;;;;;;;3.15;2.35;;;25.50;59.80;;;;;;4970803;28;20070;-60
2022/08/27 01:59:03;;;;;;;1.80;1.45;;;25.40;59.80;;;;;;4991895;28;20050;-60
2022/08/27 02:01:31;;;;;;;3.55;1.80;;;25.40;59.70;;;;;;4990502;28;20042;-60
2022/08/27 02:03:58;;;;;;;3.38;2.53;;;25.50;59.80;;;;;;4991508;28;20054;-60
2022/08/27 02:06:25;;;;;;;2.22;1.98;;;25.50;59.80;;;;;;4990793;28;20084;-60
2022/08/27 02:08:52;;;;;;;2.28;2.08;;;25.40;59.80;;;;;;4990612;28;20082;-60
2022/08/27 02:11:19;;;;;;;1.70;1.60;;;25.40;59.70;;;;;;4991352;28;20082;-60
2022/08/27 02:13:46;;;;;;;2.38;1.73;;;25.40;59.70;;;;;;4990350;28;20502;-60
2022/08/27 02:16:13;;;;;;;2.08;1.90;;;25.40;59.80;;;;;;4990716;28;20198;-61
2022/08/27 02:18:41;;;;;;;2.33;1.98;;;25.40;59.80;;;;;;4991541;28;20054;-61
2022/08/27 02:21:09;;;;;;;3.47;2.40;;;25.40;59.80;;;;;;4989950;28;20360;-60
2022/08/27 02:23:37;;;;;;;4.22;1.83;;;25.40;59.80;;;;;;4989624;28;20053;-60
2022/08/27 02:26:04;;;;;;;2.30;2.03;;;25.40;59.80;;;;;;4986187;28;20043;-60
2022/08/27 02:28:33;;;;;;;3.92;1.85;;;25.40;59.80;;;;;;4990233;28;20454;-60
2022/08/27 02:31:00;;;;;;;3.33;2.13;;;25.40;59.80;;;;;;4990305;28;20048;-60
2022/08/27 02:33:28;;;;;;;4.18;2.25;;;25.40;60.50;;;;;;4972903;28;20347;-60
2022/08/27 02:35:55;;;;;;;3.75;2.22;;;25.40;59.90;;;;;;4990975;28;20054;-60
2022/08/27 02:38:23;;;;;;;2.78;1.92;;;25.40;59.80;;;;;;4990779;28;20046;-60
2022/08/27 02:40:52;;;;;;;3.50;2.35;;;25.40;59.90;;;;;;4989923;28;20047;-60
2022/08/27 02:43:20;;;;;;;2.17;1.98;;;25.40;60.40;;;;;;4990547;28;20061;-60
2022/08/27 02:45:51;;;;;;;2.80;1.95;;;25.40;59.90;;;;;;4989932;28;20439;-60
2022/08/27 02:48:20;;;;;;;1.90;1.80;;;25.40;59.90;;;;;;4990221;28;20534;-60
2022/08/27 02:50:47;;;;;;;3.17;2.13;;;25.40;59.90;;;;;;4990093;28;20560;-62
2022/08/27 02:53:14;;;;;;;2.00;1.90;;;25.40;59.90;;;;;;4972918;28;20487;-61
2022/08/27 02:55:41;;;;;;;2.28;2.08;;;25.40;59.90;;;;;;4990387;28;20105;-61
2022/08/27 02:58:09;;;;;;;1.92;1.83;;;25.40;59.90;;;;;;4967939;28;20046;-61
2022/08/27 03:00:36;;;;;;;2.58;2.35;;;25.40;59.90;;;;;;4990767;28;20366;-61
2022/08/27 03:03:03;;;;;;;3.08;1.95;;;25.40;59.90;;;;;;4989927;28;20446;-61
2022/08/27 03:05:31;;;;;;;2.72;2.05;;;25.40;59.80;;;;;;4989415;28;20045;-61
2022/08/27 03:07:58;;;;;;;2.53;2.08;;;25.40;59.90;;;;;;4990453;28;20288;-61
2022/08/27 03:10:25;;;;;;;3.45;2.30;;;25.40;59.90;;;;;;4989043;28;20043;-61
2022/08/27 03:12:52;;;;;;;2.47;1.98;;;25.40;59.90;;;;;;4990336;28;20108;-61
2022/08/27 03:15:20;;;;;;;2.38;2.17;;;25.40;59.80;;;;;;4989142;28;20596;-61
2022/08/27 03:20:40;;;;;;;2.80;2.35;;;25.40;59.90;;;;;;4989401;28;20486;-61
2022/08/27 03:23:08;;;;;;;2.65;2.45;;;25.40;59.80;;;;;;4990262;28;20520;-61
2022/08/27 03:25:36;;;;;;;3.15;1.88;;;25.40;59.80;;;;;;4990270;28;20046;-61
2022/08/27 03:28:04;;;;;;;2.58;2.13;;;25.40;59.90;;;;;;4988967;28;20140;-61
2022/08/27 03:30:52;;;;;;;2.38;2.17;;;25.40;59.90;;;;;;4986626;28;20138;-61
2022/08/27 03:33:21;;;;;;;2.22;2.13;;;25.40;59.90;;;;;;4989039;28;20073;-61
2022/08/27 03:35:48;;;;;;;2.65;2.45;;;25.40;59.90;;;;;;4988957;28;20050;-61
2022/08/27 03:38:18;;;;;;;2.20;2.10;;;25.40;59.90;;;;;;4989975;28;20050;-61
2022/08/27 03:40:45;;;;;;;2.28;1.80;;;25.30;59.90;;;;;;4988715;28;20435;-60
2022/08/27 03:43:15;;;;;;;2.40;1.77;;;25.30;59.90;;;;;;4972350;28;20224;-61
2022/08/27 03:45:44;;;;;;;2.95;2.65;;;25.40;59.90;;;;;;4971511;28;20548;-61
2022/08/27 03:48:29;;;;;;;2.65;2.22;;;25.30;59.90;;;;;;4974844;28;20129;-61
2022/08/27 03:50:56;;;;;;;2.25;2.05;;;25.40;59.90;;;;;;4988952;28;20042;-61
2022/08/27 03:53:24;;;;;;;2.85;2.50;;;25.30;59.90;;;;;;4988848;28;20074;-61
2022/08/27 03:55:52;;;;;;;2.47;2.28;;;25.40;59.90;;;;;;4988073;28;20459;-61
2022/08/27 03:58:19;;;;;;;2.15;2.03;;;25.40;59.90;;;;;;4987896;28;20463;-61
2022/08/27 04:00:46;;;;;;;2.05;1.75;;;25.30;59.90;;;;;;4975442;28;20069;-61
2022/08/27 04:03:14;;;;;;;2.47;1.85;;;25.30;59.90;;;;;;4978815;28;20054;-61
2022/08/27 04:05:41;;;;;;;2.15;1.90;;;25.30;59.90;;;;;;4986124;28;20045;-61
2022/08/27 04:08:11;;;;;;;3.15;2.13;;;25.30;59.90;;;;;;4969879;28;20447;-61
2022/08/27 04:10:40;;;;;;;2.08;1.67;;;25.30;59.90;;;;;;4969197;28;20549;-61
2022/08/27 04:13:07;;;;;;;5.47;1.98;;;25.40;60.00;;;;;;4952512;28;20557;-61
2022/08/27 04:15:34;;;;;;;2.42;1.83;;;25.40;59.90;;;;;;4969550;28;20050;-60
2022/08/27 04:18:06;;;;;;;2.30;2.10;;;25.40;59.90;;;;;;4979739;28;20517;-61
2022/08/27 04:20:33;;;;;;;2.20;2.00;;;25.40;59.90;;;;;;4988881;28;20549;-61
2022/08/27 04:23:03;;;;;;;4.35;2.08;;;25.40;59.90;;;;;;4970939;28;20083;-63
2022/08/27 04:25:30;;;;;;;2.15;1.90;;;25.40;59.90;;;;;;4971402;28;20523;-61
2022/08/27 04:27:58;;;;;;;2.03;1.90;;;25.40;59.80;;;;;;4971785;28;20093;-61
2022/08/27 04:30:25;;;;;;;2.92;2.33;;;25.40;59.80;;;;;;4987271;28;20046;-61
2022/08/27 04:32:52;;;;;;;2.13;2.03;;;25.40;59.70;;;;;;4967388;28;20105;-61
2022/08/27 04:35:20;;;;;;;2.85;2.08;;;25.40;59.70;;;;;;4987484;28;20101;-61
2022/08/27 04:37:47;;;;;;;2.08;1.88;;;25.40;59.70;;;;;;4988968;28;20097;-61
2022/08/27 04:40:15;;;;;;;2.08;1.85;;;25.40;59.60;;;;;;4988863;28;20344;-61
2022/08/27 04:42:43;;;;;;;4.50;2.50;;;25.40;59.60;;;;;;4988041;28;20429;-61
2022/08/27 04:45:10;;;;;;;1.60;1.50;;;25.40;59.60;;;;;;4988930;28;20100;-61
2022/08/27 04:47:37;;;;;;;2.50;2.03;;;25.40;59.60;;;;;;4989411;28;20450;-61
2022/08/27 04:50:05;;;;;;;2.40;2.20;;;25.50;59.60;;;;;;4992675;28;20100;-61
2022/08/27 04:52:34;;;;;;;2.20;2.10;;;25.40;59.50;;;;;;4993666;28;20050;-61
2022/08/27 04:55:07;;;;;;;2.05;1.85;;;25.50;59.50;;;;;;4991429;28;20542;-61
2022/08/27 04:57:36;;;;;;;1.70;1.60;;;25.50;59.40;;;;;;4992662;28;20097;-61
2022/08/27 05:00:06;;;;;;;3.20;2.25;;;25.50;59.40;;;;;;4991944;28;20062;-61
2022/08/27 05:02:33;;;;;;;2.25;1.77;;;25.60;59.40;;;;;;4992818;28;20106;-61
2022/08/27 05:05:00;;;;;;;2.75;2.05;;;25.50;59.20;;;;;;4987697;28;20086;-61
2022/08/27 05:07:27;;;;;;;1.90;1.80;;;25.60;59.20;;;;;;4992009;28;20050;-61
2022/08/27 05:09:54;;;;;;;2.50;1.95;;;25.50;59.10;;;;;;4993250;28;20046;-61
2022/08/27 05:12:22;;;;;;;4.18;2.70;;;25.50;59.20;;;;;;4991482;28;20496;-61
2022/08/27 05:14:49;;;;;;;4.07;2.47;;;25.40;59.30;;;;;;4976225;28;20101;-61
2022/08/27 05:17:16;;;;;;;4.60;2.13;;;25.40;59.60;;;;;;4991370;28;20078;-61
2022/08/27 05:19:43;;;;;;;3.80;2.55;;;25.20;59.10;;;;;;4991689;28;20112;-61
2022/08/27 05:22:10;;;;;;;7.43;2.30;;;25.00;58.20;;;;;;4959114;28;20082;-61
2022/08/27 05:24:38;;;;;;;2.90;2.70;;;24.80;57.30;;;;;;4991363;28;20043;-60
2022/08/27 05:27:05;;;;;;;5.35;2.88;;;24.50;56.70;;;;;;4974762;28;20446;-61
2022/08/27 05:29:35;;;;;;;2.55;2.35;;;24.20;56.20;;;;;;4992144;28;20050;-61
2022/08/27 05:32:03;;;;;;;2.08;1.98;;;23.90;55.80;;;;;;4973782;28;20100;-61
2022/08/27 05:34:31;;;;;;;3.30;2.38;;;23.60;55.30;;;;;;4992183;28;20051;-61
2022/08/27 05:36:58;;;;;;;2.72;2.53;;;23.20;54.90;;;;;;4985948;28;20042;-61
2022/08/27 05:39:25;;;;;;;3.28;2.63;;;22.90;55.00;;;;;;4992009;28;20538;-61
2022/08/27 05:41:56;;;;;;;3.97;2.50;;;22.60;55.00;;;;;;4991763;28;20054;-61
2022/08/27 05:44:23;;;;;;;3.70;2.55;;;22.30;54.80;;;;;;4973598;28;20392;-61
2022/08/27 05:47:07;;;;;;;4.65;2.55;;;22.00;55.20;;;;;;4991649;28;20515;-61
2022/08/27 05:49:34;;;;;;;6.63;3.50;;;21.80;55.60;;;;;;4973448;28;20307;-61
2022/08/27 05:52:02;;;;;;;3.13;2.83;;;21.60;55.70;;;;;;4991755;28;20050;-61
2022/08/27 05:54:29;;;;;;;3.90;3.10;;;21.30;56.40;;;;;;4991808;28;20061;-61
2022/08/27 05:56:56;;;;;;;3.78;3.42;;;21.20;57.00;;;;;;4990210;28;20446;-61
2022/08/27 06:02:10;;;;;;;3.20;2.90;;;20.80;57.40;;;;;;4990049;28;20365;-61
2022/08/27 06:04:38;;;;;;;3.25;2.90;;;20.70;58.30;;;;;;4991864;28;20058;-61
2022/08/27 06:07:09;;;;;;;5.55;3.00;;;20.60;58.70;;;;;;4985296;28;20049;-61
2022/08/27 06:09:37;;;;;;;9.27;3.03;;;20.50;59.20;;;;;;4991634;28;20082;-61
2022/08/27 06:12:05;;;;;;;5.75;3.00;;;20.40;58.80;;;;;;4991386;28;20081;-61
2022/08/27 06:14:35;;;;;;;3.42;3.13;;;20.30;59.30;;;;;;4990071;28;20051;-61
2022/08/27 06:17:03;;;;;;;3.80;3.15;;;20.20;59.20;;;;;;4990806;28;20101;-61
2022/08/27 06:19:30;;;;;;;4.30;2.90;;;20.10;59.80;;;;;;4990895;28;20158;-61
2022/08/27 06:21:59;;;;;;;7.20;3.95;;;20.10;59.90;;;;;;4990869;28;20042;-61
2022/08/27 06:24:39;;;;;;;4.88;3.55;;;20.00;60.00;;;;;;4975335;28;20335;-61
2022/08/27 06:27:12;;;;;;;5.13;4.00;;;19.90;60.00;;;;;;4990088;28;20050;-61
2022/08/27 06:29:40;;;;;;;6.22;4.18;;;19.80;60.50;;;;;;4990957;28;20601;-61
2022/08/27 06:32:08;;;;;;;5.65;3.30;;;19.80;60.60;;;;;;4989645;28;20101;-62
2022/08/27 06:34:36;;;;;;;6.32;4.75;;;19.70;60.40;;;;;;4990965;28;20054;-61
2022/08/27 06:37:03;;;;;;;7.03;3.95;;;19.70;60.60;;;;;;4990888;28;20081;-60
2022/08/27 06:39:31;;;;;;;10.73;4.32;;;19.60;61.40;;;;;;4985766;28;20105;-61
2022/08/27 06:41:58;;;;;;;6.43;3.60;;;19.60;61.00;;;;;;4990638;28;20450;-61
2022/08/27 06:44:25;;;;;;;5.45;3.88;;;19.50;60.80;;;;;;4989389;28;20101;-62
2022/08/27 06:46:53;;;;;;;8.27;3.80;;;19.50;61.20;;;;;;4973486;28;20450;-61
2022/08/27 06:49:20;;;;;;;8.05;3.63;;;19.50;61.70;;;;;;4990258;28;20112;-61
2022/08/27 06:51:47;;;;;;;6.15;3.80;;;19.50;62.20;;;;;;4990158;28;20124;-61
2022/08/27 06:54:15;;;;;;;6.07;3.40;;;19.50;62.50;;;;;;4972829;28;20054;-61
2022/08/27 06:56:43;;;;;;;7.35;4.75;;;19.50;62.10;;;;;;4983464;28;20438;-61
2022/08/27 06:59:14;;;;;;;8.80;4.55;;;19.50;62.20;;;;;;4991586;28;20050;-61
2022/08/27 07:01:44;;;;;;;5.18;3.92;;;19.50;61.90;;;;;;4972308;28;20046;-61
2022/08/27 07:04:15;;;;;;;;;;;19.50;61.90;;;;;;4990247;28;20050;-61
2022/08/27 07:06:42;;;;;;;;;;;19.50;62.40;;;;;;4990436;28;19921;-61
2022/08/27 07:09:10;;;;;;;4.28;3.47;;;19.50;62.40;;;;;;4989699;28;19988;-61
2022/08/27 07:11:38;;;;;;;6.07;4.53;;;19.50;62.20;;;;;;4985116;28;20498;-61
2022/08/27 07:14:07;;;;;;;9.70;4.10;;;19.50;61.90;;;;;;4989712;28;20081;-61
2022/08/27 07:16:35;;;;;;;12.20;3.83;;;19.50;62.30;;;;;;4989714;28;20077;-61
2022/08/27 07:19:04;;;;;;;10.68;4.40;;;19.50;62.10;;;;;;4972554;28;20050;-61
2022/08/27 07:21:32;;;;;;;9.15;4.40;;;19.50;62.70;;;;;;4971918;28;20449;-61
2022/08/27 07:24:03;;;;;;;9.18;4.60;;;19.50;62.40;;;;;;4972689;28;20054;-61
2022/08/27 07:26:33;;;;;;;9.02;4.40;;;19.50;62.80;;;;;;4988953;28;20133;-61
2022/08/27 07:29:03;;;;;;;6.63;4.30;;;19.60;63.10;;;;;;4989788;28;20104;-61
2022/08/27 07:31:30;;;;;;;8.45;5.07;;;19.60;63.20;;;;;;4989128;28;20093;-61
2022/08/27 07:33:57;;;;;;;8.32;4.47;;;19.60;63.10;;;;;;4990006;28;20101;-60
2022/08/27 07:36:24;;;;;;;4.65;3.63;;;19.60;63.50;;;;;;4989003;28;20450;-60
2022/08/27 07:38:52;;;;;;;6.28;3.85;;;19.60;63.40;;;;;;4971803;28;20046;-61
2022/08/27 07:41:29;;;;;;;9.20;4.82;;;19.70;63.50;;;;;;4990201;28;20086;-60
2022/08/27 07:46:46;;;;;;;5.90;4.95;;;19.70;63.40;;;;;;4989934;28;20125;-61
2022/08/27 07:49:16;;;;;;;6.28;4.22;;;19.70;63.40;;;;;;4988177;28;20783;-61
2022/08/27 07:51:44;;;;;;;7.13;4.80;;;19.70;63.50;;;;;;4972279;28;20565;-61
2022/08/27 07:54:12;;;;;;;6.38;4.88;;;19.70;63.00;;;;;;4989562;28;20058;-61
2022/08/27 07:56:39;;;;;;;6.22;4.60;;;19.80;63.60;;;;;;4989164;28;20050;-61
2022/08/27 07:59:07;;;;;;;4.95;4.43;;;19.80;63.40;;;;;;4989306;28;20093;-61
2022/08/27 08:01:34;;;;;;;6.63;4.53;;;19.80;63.40;;;;;;4988404;28;20085;-60
2022/08/27 08:04:02;;;;;;;6.68;4.63;;;19.80;63.70;;;;;;4989221;28;20043;-61
2022/08/27 08:06:29;;;;;;;7.82;3.80;;;19.80;64.00;;;;;;4989157;28;20109;-61
2022/08/27 08:08:58;;;;;;;10.32;5.10;;;19.80;63.80;;;;;;4970650;28;20262;-61
2022/08/27 08:11:25;;;;;;;6.78;4.53;;;19.90;63.70;;;;;;4989619;28;20558;-61
2022/08/27 08:13:52;;;;;;;6.85;4.80;;;19.90;64.40;;;;;;4983767;28;20101;-61
2022/08/27 08:16:23;;;;;;;7.47;4.88;;;19.90;63.60;;;;;;4989107;28;20108;-60
2022/08/27 08:18:58;;;;;;;8.18;4.28;;;19.90;63.90;;;;;;4989044;28;20042;-61
2022/08/27 08:21:26;;;;;;;6.00;4.45;;;20.00;64.00;;;;;;4987624;28;20251;-61
2022/08/27 08:23:53;;;;;;;8.38;4.65;;;20.00;63.80;;;;;;4988476;28;20046;-61
2022/08/27 08:26:21;;;;;;;8.70;4.30;;;20.00;64.40;;;;;;4970117;28;20050;-61
2022/08/27 08:28:49;;;;;;;8.77;5.38;;;20.10;64.30;;;;;;4989176;28;20077;-61
2022/08/27 08:31:16;;;;;;;7.53;5.13;;;20.10;64.40;;;;;;4988750;28;20100;-61
2022/08/27 08:33:45;;;;;;;5.75;4.40;;;20.10;63.90;;;;;;4987615;28;20054;-61
2022/08/27 08:36:14;;;;;;;7.45;4.95;;;20.10;64.00;;;;;;4989048;28;20442;-61
2022/08/27 08:38:43;;;;;;;8.50;4.55;;;20.20;63.50;;;;;;4987856;28;20120;-61
2022/08/27 08:41:39;;;;;;;7.35;4.40;;;20.20;63.60;;;;;;4988977;28;20038;-61
2022/08/27 08:44:19;;;;;;;8.63;4.63;;;20.20;63.40;;;;;;4974745;28;20050;-61
2022/08/27 08:47:13;;;;;;;6.70;4.63;;;20.20;63.30;;;;;;4986197;28;20046;-61
2022/08/27 08:49:53;;;;;;;14.55;4.80;;;20.10;63.80;;;;;;4982847;28;20133;-61
2022/08/27 08:52:40;;;;;;;10.63;4.55;;;20.20;63.50;;;;;;4983954;28;20054;-61
2022/08/27 08:55:34;;;;;;;8.70;4.65;;;20.20;63.50;;;;;;4971229;28;20576;-61
2022/08/27 08:58:34;;;;;;;10.40;4.35;;;20.30;63.20;;;;;;4982297;28;20586;-61
2022/08/27 09:01:05;;;;;;;10.05;4.85;;;20.30;63.80;;;;;;4988599;28;20077;-61
2022/08/27 09:03:35;;;;;;;6.43;4.35;;;20.30;64.00;;;;;;4987530;28;20050;-61
2022/08/27 09:06:06;;;;;;;7.15;4.65;;;20.30;63.60;;;;;;4971482;28;20510;-61
2022/08/27 09:08:36;;;;;;;9.02;4.72;;;20.30;63.90;;;;;;4988308;28;20478;-61
2022/08/27 09:11:31;;;;;;;7.30;4.55;;;20.40;63.70;;;;;;4970562;28;20054;-61
2022/08/27 09:14:18;;;;;;;8.07;4.20;;;20.40;63.90;;;;;;4987979;28;20177;-61
2022/08/27 09:16:45;;;;;;;8.45;4.85;;;20.40;64.10;;;;;;4983357;28;20247;-61
2022/08/27 09:19:12;;;;;;;6.47;4.38;;;20.40;64.10;;;;;;4988180;28;20054;-61
2022/08/27 09:22:00;;;;;;;9.80;4.57;;;20.40;64.20;;;;;;4987334;28;20089;-61
2022/08/27 09:24:54;;;;;;;5.78;4.57;;;20.50;64.30;;;;;;4971514;28;20101;-61
2022/08/27 09:27:22;;;;;;;8.10;4.35;;;20.60;64.30;;;;;;4987846;28;20521;-61
2022/08/27 09:29:53;;;;;;;8.90;4.97;;;20.60;64.10;;;;;;4970827;28;20105;-61
2022/08/27 09:32:24;;;;;;;;;;;20.60;64.40;;;;;;4987625;28;20096;-61
2022/08/27 09:34:58;;;;;;;7.57;3.80;;;20.60;64.40;;;;;;4991507;28;19992;-61
2022/08/27 09:37:30;;;;;;;7.47;4.45;;;20.60;64.70;;;;;;4991713;28;20046;-61
2022/08/27 09:40:22;;;;;;;11.25;4.30;;;20.70;64.30;;;;;;4990355;28;20415;-61
2022/08/27 09:42:53;;;;;;;9.65;4.53;;;20.70;65.00;;;;;;4992320;28;20042;-61
2022/08/27 09:45:28;;;;;;;;;;;20.80;64.80;;;;;;4991350;28;20486;-61
2022/08/27 09:48:08;;;;;;;12.48;4.93;;;20.80;64.10;;;;;;4990404;28;19922;-61
2022/08/27 09:50:41;;;;;;;7.25;4.07;;;20.90;64.30;;;;;;4989752;28;20106;-61
2022/08/27 09:53:35;;;;;;;7.28;4.93;;;20.90;63.90;;;;;;4991687;28;20479;-61
2022/08/27 09:56:06;;;;;;;8.90;4.85;;;20.90;63.70;;;;;;4991355;28;20540;-61
2022/08/27 09:58:58;;;;;;;7.70;4.55;;;20.90;63.40;;;;;;4990706;28;20050;-61
2022/08/27 10:01:29;;;;;;;9.80;4.40;;;20.90;63.20;;;;;;4974588;28;20130;-61
2022/08/27 10:04:15;;;;;;;10.00;4.47;;;20.90;63.20;;;;;;4956876;28;20414;-61
2022/08/27 10:06:47;;;;;;;6.15;4.40;;;20.90;63.00;;;;;;4991274;28;20200;-61
2022/08/27 10:09:27;;;;;;;9.40;4.45;;;20.90;63.00;;;;;;4973101;28;20096;-61
2022/08/27 10:12:16;;;;;;;6.37;4.03;;;20.90;62.10;;;;;;4991307;28;20046;-61
2022/08/27 10:14:49;;;;;;;6.47;4.55;;;20.90;62.30;;;;;;4974086;28;20380;-61
2022/08/27 10:17:46;;;;;;;9.80;4.97;;;20.90;61.70;;;;;;4990680;28;20050;-61
2022/08/27 10:20:31;;;;;;;14.93;4.50;;;20.90;61.20;;;;;;4973640;28;20086;-61
2022/08/27 10:23:38;;;;;;;5.22;4.30;;;20.80;61.30;;;;;;4974568;28;20046;-61
2022/08/27 10:26:29;;;;;;;5.85;4.25;;;20.80;61.10;;;;;;4990818;28;20109;-61
2022/08/27 10:29:26;;;;;;;6.25;3.90;;;20.70;60.90;;;;;;4973177;28;20061;-61
2022/08/27 10:32:25;;;;;;;5.90;4.20;;;20.60;60.80;;;;;;4991374;28;20108;-61
2022/08/27 10:35:23;;;;;;;6.45;4.03;;;20.60;60.90;;;;;;4990162;28;20043;-61
2022/08/27 10:38:21;;;;;;;9.00;3.85;;;20.50;61.20;;;;;;4990651;28;20050;-61
2022/08/27 10:40:59;;;;;;;10.13;4.50;;;20.50;61.60;;;;;;4989329;28;20047;-61
2022/08/27 10:43:55;;;;;;;6.85;3.90;;;20.50;61.40;;;;;;4991135;28;20050;-61
2022/08/27 10:46:54;;;;;;;9.25;4.10;;;20.40;61.30;;;;;;4988557;28;20554;-61
2022/08/27 10:49:44;;;;;;;10.73;4.20;;;20.40;60.80;;;;;;4990625;28;20538;-61
2022/08/27 10:52:34;;;;;;;4.53;3.42;;;20.40;61.10;;;;;;4984894;28;20042;-61
2022/08/27 10:55:23;;;;;;;9.20;4.00;;;20.30;61.10;;;;;;4990828;28;20108;-61
2022/08/27 10:58:29;;;;;;;8.80;3.30;;;20.30;60.80;;;;;;4990152;28;20117;-61
2022/08/27 11:01:36;;;;;;;7.95;4.15;;;20.20;61.10;;;;;;4990263;28;20520;-61
2022/08/27 11:04:13;;;;;;;6.93;4.18;;;20.20;60.50;;;;;;4990443;28;20074;-61
2022/08/27 11:06:49;;;;;;;5.78;3.72;;;20.20;61.30;;;;;;4970569;28;20490;-61
2022/08/27 11:09:22;;;;;;;5.47;3.72;;;20.20;61.60;;;;;;4971180;28;20059;-61
2022/08/27 11:11:57;;;;;;;5.93;3.85;;;20.10;61.50;;;;;;4964562;28;20054;-61
2022/08/27 11:14:59;;;;;;;5.82;4.35;;;20.20;61.70;;;;;;4990099;28;20050;-61
2022/08/27 11:17:39;;;;;;;7.45;3.85;;;20.20;61.80;;;;;;4988959;28;20090;-61
2022/08/27 11:20:24;;;;;;;7.68;4.00;;;20.20;61.20;;;;;;4989734;28;20240;-61
2022/08/27 11:23:03;;;;;;;9.70;4.28;;;20.20;61.80;;;;;;4953248;28;20311;-61
2022/08/27 11:25:41;;;;;;;7.20;3.97;;;20.20;61.60;;;;;;4973067;28;20248;-61
2022/08/27 11:28:10;;;;;;;10.02;4.30;;;20.30;62.40;;;;;;4989678;28;20046;-61
2022/08/27 11:30:53;;;;;;;8.52;4.03;;;20.30;62.10;;;;;;4971849;28;20093;-61
2022/08/27 11:33:39;;;;;;;7.10;4.15;;;20.40;61.30;;;;;;4990069;28;20384;-61
2022/08/27 11:36:51;;;;;;;6.70;4.03;;;20.40;61.20;;;;;;4989363;28;20046;-63
2022/08/27 11:40:00;;;;;;;11.13;4.13;;;20.40;60.80;;;;;;4989359;28;20054;-63
2022/08/27 11:42:44;;;;;;;6.65;3.45;;;20.40;60.50;;;;;;4976887;28;20078;-61
2022/08/27 11:45:27;;;;;;;6.68;4.00;;;20.50;60.30;;;;;;4989145;28;20100;-61
2022/08/27 11:48:00;;;;;;;8.15;3.72;;;20.50;60.40;;;;;;4989435;28;20473;-61
2022/08/27 11:50:30;;;;;;;6.57;3.28;;;20.40;60.40;;;;;;4990056;28;20054;-61
2022/08/27 11:53:01;;;;;;;8.07;3.83;;;20.40;60.40;;;;;;4989822;28;20051;-61
2022/08/27 11:55:35;;;;;;;6.75;3.85;;;20.40;60.00;;;;;;4983652;28;20112;-61
2022/08/27 11:58:09;;;;;;;7.47;3.92;;;20.40;60.30;;;;;;4989085;28;20046;-61
2022/08/27 12:00:40;;;;;;;4.80;3.42;;;20.40;60.30;;;;;;4988636;28;20046;-61
2022/08/27 12:03:30;;;;;;;8.40;4.15;;;20.30;60.40;;;;;;4988864;28;20098;-61
2022/08/27 12:06:16;;;;;;;5.28;3.60;;;20.30;60.80;;;;;;4988400;28;20146;-61
2022/08/27 12:08:44;;;;;;;7.65;3.28;;;20.30;60.60;;;;;;4988777;28;20605;-61
2022/08/27 12:11:28;;;;;;;5.35;3.42;;;20.30;60.50;;;;;;4988790;28;20084;-61
2022/08/27 12:14:16;;;;;;;8.60;4.07;;;20.40;60.60;;;;;;4988069;28;20399;-61
2022/08/27 12:17:15;;;;;;;6.25;4.10;;;20.40;60.80;;;;;;4972024;28;20054;-61
2022/08/27 12:20:12;;;;;;;5.38;3.60;;;20.40;61.20;;;;;;4975670;28;20179;-61
2022/08/27 12:26:29;;;;;;;7.97;4.00;;;20.40;60.80;;;;;;4983511;28;20046;-61
2022/08/27 12:29:22;;;;;;;7.05;3.53;;;20.40;60.90;;;;;;4988904;28;20178;-62
2022/08/27 12:31:59;;;;;;;4.60;3.33;;;20.50;60.50;;;;;;4988096;28;20150;-61
2022/08/27 12:34:28;;;;;;;9.60;4.22;;;20.50;60.90;;;;;;4988602;28;20065;-61
2022/08/27 12:36:55;;;;;;;5.10;3.85;;;20.50;60.80;;;;;;4988148;28;20505;-61
2022/08/27 12:39:29;;;;;;;6.30;2.90;;;20.50;60.80;;;;;;4988994;28;20046;-62
2022/08/27 12:41:56;;;;;;;6.50;2.90;;;20.50;60.80;;;;;;4989132;28;20047;-61
2022/08/27 12:44:32;;;;;;;6.88;3.28;;;20.50;61.00;;;;;;4987968;28;20070;-62
2022/08/27 12:47:07;;;;;;;4.95;3.63;;;20.50;60.80;;;;;;4988888;28;20070;-61
2022/08/27 12:49:45;;;;;;;6.15;3.70;;;20.60;60.60;;;;;;4987604;28;20070;-61
2022/08/27 12:52:51;;;;;;;11.88;3.90;;;20.60;60.90;;;;;;4988564;28;20549;-60
2022/08/27 12:55:45;;;;;;;10.02;4.10;;;20.60;60.60;;;;;;4987575;28;20125;-61
2022/08/27 12:58:40;;;;;;;10.32;3.47;;;20.60;60.70;;;;;;4983559;28;20058;-61
2022/08/27 13:01:23;;;;;;;9.02;4.55;;;20.60;60.80;;;;;;4988736;28;20046;-60
2022/08/27 13:03:53;;;;;;;4.00;3.38;;;20.60;61.10;;;;;;4971469;28;20062;-61
2022/08/27 13:06:28;;;;;;;8.07;3.40;;;20.70;60.70;;;;;;4988769;28;20058;-61
2022/08/27 13:09:01;;;;;;;11.50;3.58;;;20.70;60.90;;;;;;4989660;28;20085;-61
2022/08/27 13:11:34;;;;;;;6.20;3.17;;;20.70;61.10;;;;;;4992755;28;20128;-61
2022/08/27 13:14:11;;;;;;;4.53;3.53;;;20.80;60.80;;;;;;4991431;28;20438;-61
2022/08/27 13:16:56;;;;;;;5.88;3.67;;;20.80;61.00;;;;;;4991995;28;20101;-61
2022/08/27 13:19:29;;;;;;;4.97;3.63;;;20.80;61.10;;;;;;4992214;28;20487;-60
2022/08/27 13:21:58;;;;;;;5.55;3.22;;;20.80;60.90;;;;;;4991273;28;20398;-61
2022/08/27 13:24:45;;;;;;;11.50;4.18;;;20.80;61.00;;;;;;4992323;28;20654;-61
2022/08/27 13:27:13;;;;;;;4.35;3.45;;;20.80;60.30;;;;;;4973616;28;20113;-61
2022/08/27 13:29:41;;;;;;;7.60;3.35;;;20.80;60.80;;;;;;4987506;28;20077;-61
2022/08/27 13:32:12;;;;;;;6.82;3.30;;;20.90;60.70;;;;;;4991753;28;20406;-61